Time;durP1;ratioP1;P1;durP2;ratioP2;P2;SDS_P1;SDS_P2;PMS_P1;PMS_P2;Temp;Humidity;BMP_temperature;BMP_pressure;BME280_temperature;BME280_humidity;BME280_pressure;Samples;Min_cycle;Max_cycle;Signal;HPM_P1;HPM_P2
2022/03/23 00:02:17;;;;;;;11.75;1.40;;;;;;;;;;4931847;29;20315;-71
2022/03/23 00:04:47;;;;;;;8.45;1.58;;;;;;;;;;4916474;29;20052;-69
2022/03/23 00:07:20;;;;;;;12.85;1.50;;;;;;;;;;4958467;28;20055;-71
2022/03/23 00:09:53;;;;;;;7.43;1.35;;;;;;;;;;4923493;28;20055;-70
2022/03/23 00:12:26;;;;;;;2.17;0.90;;;;;;;;;;4970543;28;20066;-69
2022/03/23 00:14:58;;;;;;;6.28;1.02;;;;;;;;;;4954746;28;20051;-71
2022/03/23 00:17:29;;;;;;;3.55;0.80;;;;;;;;;;4970639;28;20062;-71
2022/03/23 00:20:04;;;;;;;3.33;1.10;;;;;;;;;;4939268;28;20411;-69
2022/03/23 00:22:43;;;;;;;3.95;1.02;;;;;;;;;;4970228;28;20478;-69
2022/03/23 00:25:15;;;;;;;5.10;1.00;;;;;;;;;;4999098;28;20061;-70
2022/03/23 00:27:45;;;;;;;3.03;1.13;;;;;;;;;;4976434;28;21032;-70
2022/03/23 00:30:25;;;;;;;2.53;1.02;;;;;;;;;;5009109;28;20041;-70
2022/03/23 00:33:18;;;;;;;2.25;0.90;;;;;;;;;;4989413;28;20058;-70
2022/03/23 00:35:51;;;;;;;2.10;1.00;;;;;;;;;;4987670;28;20061;-70
2022/03/23 00:38:21;;;;;;;2.10;0.80;;;;;;;;;;4940963;28;20078;-69
2022/03/23 00:41:00;;;;;;;2.67;1.05;;;;;;;;;;5007842;28;20387;-69
2022/03/23 00:43:34;;;;;;;2.78;0.80;;;;;;;;;;4969925;28;20055;-69
2022/03/23 00:46:07;;;;;;;4.10;1.13;;;;;;;;;;4954831;28;20050;-70
2022/03/23 00:48:37;;;;;;;4.78;1.10;;;;;;;;;;4969920;28;20065;-71
2022/03/23 00:51:11;;;;;;;2.92;1.48;;;;;;;;;;4969714;28;20055;-68
2022/03/23 00:53:44;;;;;;;4.32;1.13;;;;;;;;;;4953891;28;20530;-71
2022/03/23 00:56:17;;;;;;;3.22;1.20;;;;;;;;;;4953661;28;20054;-70
2022/03/23 00:58:48;;;;;;;1.63;0.82;;;;;;;;;;4969725;28;20070;-70
2022/03/23 01:01:21;;;;;;;3.47;1.10;;;;;;;;;;4950210;29;20055;-70
2022/03/23 01:03:52;;;;;;;2.42;1.08;;;;;;;;;;4950587;29;20519;-70
2022/03/23 01:06:22;;;;;;;3.72;0.82;;;;;;;;;;4934941;29;20104;-70
2022/03/23 01:08:53;;;;;;;2.30;1.08;;;;;;;;;;4934677;29;20062;-70
2022/03/23 01:11:24;;;;;;;1.98;0.93;;;;;;;;;;4902613;29;20059;-69
2022/03/23 01:13:59;;;;;;;3.15;1.15;;;;;;;;;;4948247;28;20059;-69
2022/03/23 01:16:29;;;;;;;2.22;0.85;;;;;;;;;;4934194;29;20051;-71
2022/03/23 01:19:01;;;;;;;9.88;1.15;;;;;;;;;;4950521;29;20512;-71
2022/03/23 01:21:33;;;;;;;3.03;0.90;;;;;;;;;;4936792;29;20055;-70
2022/03/23 01:24:06;;;;;;;2.00;0.90;;;;;;;;;;4918768;29;20082;-70
2022/03/23 01:26:38;;;;;;;3.08;1.00;;;;;;;;;;4951770;28;20496;-70
2022/03/23 01:29:09;;;;;;;2.80;1.00;;;;;;;;;;4954072;28;20087;-71
2022/03/23 01:31:41;;;;;;;3.50;1.58;;;;;;;;;;4906261;29;20519;-71
2022/03/23 01:34:11;;;;;;;5.55;0.95;;;;;;;;;;4938799;29;20070;-68
2022/03/23 01:36:42;;;;;;;2.42;0.80;;;;;;;;;;4953997;29;20055;-72
2022/03/23 01:39:14;;;;;;;2.85;0.93;;;;;;;;;;4938248;29;20447;-71
2022/03/23 01:41:45;;;;;;;3.88;0.95;;;;;;;;;;4953975;29;20512;-69
2022/03/23 01:44:20;;;;;;;4.43;0.93;;;;;;;;;;4954211;29;20066;-69
2022/03/23 01:47:03;;;;;;;3.05;1.13;;;;;;;;;;4953836;29;20067;-71
2022/03/23 01:49:38;;;;;;;7.38;1.10;;;;;;;;;;4954034;29;20504;-71
2022/03/23 01:52:11;;;;;;;2.33;0.80;;;;;;;;;;4953588;29;20059;-70
2022/03/23 01:54:42;;;;;;;6.32;0.82;;;;;;;;;;4932504;29;20558;-71
2022/03/23 01:57:17;;;;;;;1.13;0.73;;;;;;;;;;4937496;29;20051;-70
2022/03/23 01:59:49;;;;;;;3.35;1.00;;;;;;;;;;4948522;29;20431;-71
2022/03/23 02:02:20;;;;;;;2.67;0.88;;;;;;;;;;4953770;29;20384;-70
2022/03/23 02:05:01;;;;;;;4.07;0.93;;;;;;;;;;4934105;29;20500;-71
2022/03/23 02:07:32;;;;;;;4.20;1.02;;;;;;;;;;4934201;29;20055;-71
2022/03/23 02:10:05;;;;;;;4.00;0.82;;;;;;;;;;4915285;29;20063;-67
2022/03/23 02:12:47;;;;;;;2.47;0.80;;;;;;;;;;4915041;29;20056;-71
2022/03/23 02:15:18;;;;;;;1.98;0.80;;;;;;;;;;4915291;29;20067;-71
2022/03/23 02:17:54;;;;;;;2.20;0.75;;;;;;;;;;4968521;28;20055;-70
2022/03/23 02:20:25;;;;;;;3.05;0.60;;;;;;;;;;4972422;28;20058;-70
2022/03/23 02:22:56;;;;;;;2.50;0.80;;;;;;;;;;4972458;28;20063;-70
2022/03/23 02:25:30;;;;;;;3.65;0.82;;;;;;;;;;4972338;28;20059;-71
2022/03/23 02:28:25;;;;;;;2.15;0.80;;;;;;;;;;4972584;28;20061;-71
2022/03/23 02:30:57;;;;;;;2.10;1.10;;;;;;;;;;4956653;28;20628;-70
2022/03/23 02:33:29;;;;;;;3.20;0.98;;;;;;;;;;4991232;28;20062;-70
2022/03/23 02:36:00;;;;;;;3.00;0.75;;;;;;;;;;4951285;28;20547;-71
2022/03/23 02:38:34;;;;;;;3.70;0.60;;;;;;;;;;4947492;28;20062;-71
2022/03/23 02:41:05;;;;;;;3.65;0.90;;;;;;;;;;4917657;29;20043;-70
2022/03/23 02:43:35;;;;;;;1.70;0.65;;;;;;;;;;4907848;29;20056;-70
2022/03/23 02:46:13;;;;;;;2.28;0.73;;;;;;;;;;4930068;29;20059;-71
2022/03/23 02:48:47;;;;;;;2.47;0.70;;;;;;;;;;4969416;28;20174;-71
2022/03/23 02:51:18;;;;;;;2.08;0.75;;;;;;;;;;4952339;28;20781;-71
2022/03/23 03:02:44;;;;;;;1.95;0.70;;;;;;;;;;4952200;29;20482;-69
2022/03/23 03:05:15;;;;;;;4.90;0.80;;;;;;;;;;4968389;28;20511;-70
2022/03/23 03:10:40;;;;;;;5.18;0.95;;;;;;;;;;4952479;29;20059;-71
2022/03/23 03:13:10;;;;;;;6.72;0.90;;;;;;;;;;4920501;29;20047;-69
2022/03/23 03:15:40;;;;;;;1.90;0.73;;;;;;;;;;4968846;28;20062;-70
2022/03/23 03:18:12;;;;;;;2.03;0.68;;;;;;;;;;5010550;28;20046;-70
2022/03/23 03:20:42;;;;;;;1.30;0.52;;;;;;;;;;5010505;28;20062;-71
2022/03/23 03:23:12;;;;;;;3.75;0.80;;;;;;;;;;5010294;28;20058;-69
2022/03/23 03:25:45;;;;;;;2.47;0.90;;;;;;;;;;5010466;28;20146;-69
2022/03/23 03:28:20;;;;;;;1.55;0.70;;;;;;;;;;5020052;28;20224;-70
2022/03/23 03:30:53;;;;;;;2.50;0.98;;;;;;;;;;5017493;28;20409;-71
2022/03/23 03:33:24;;;;;;;3.88;0.90;;;;;;;;;;5049999;28;20053;-69
2022/03/23 03:35:54;;;;;;;3.30;0.75;;;;;;;;;;5034056;28;20057;-68
2022/03/23 03:38:24;;;;;;;3.58;0.70;;;;;;;;;;5049982;28;20048;-70
2022/03/23 03:40:56;;;;;;;1.92;1.15;;;;;;;;;;5030148;28;20063;-68
2022/03/23 03:43:28;;;;;;;1.52;0.52;;;;;;;;;;5040473;28;20404;-70
2022/03/23 03:46:00;;;;;;;2.70;0.75;;;;;;;;;;5075026;28;20048;-70
2022/03/23 03:48:32;;;;;;;2.50;0.98;;;;;;;;;;5041700;28;20413;-71
2022/03/23 03:51:08;;;;;;;3.95;0.70;;;;;;;;;;5092489;28;20412;-70
2022/03/23 03:53:39;;;;;;;3.92;0.70;;;;;;;;;;5092492;28;20062;-71
2022/03/23 03:56:12;;;;;;;5.00;0.88;;;;;;;;;;5092467;28;20508;-70
2022/03/23 03:58:45;;;;;;;2.38;0.90;;;;;;;;;;5075424;28;20479;-71
2022/03/23 04:01:17;;;;;;;2.40;0.90;;;;;;;;;;5069330;28;20071;-70
2022/03/23 04:03:49;;;;;;;2.85;0.93;;;;;;;;;;5069416;28;20083;-71
2022/03/23 04:06:20;;;;;;;4.47;1.65;;;;;;;;;;5009182;28;20054;-70
2022/03/23 04:08:50;;;;;;;1.67;0.63;;;;;;;;;;5009711;28;20054;-70
2022/03/23 04:11:23;;;;;;;2.00;0.77;;;;;;;;;;4970226;28;20499;-69
2022/03/23 04:13:56;;;;;;;3.60;0.82;;;;;;;;;;4970840;28;20428;-70
2022/03/23 04:16:28;;;;;;;2.88;0.70;;;;;;;;;;4922844;28;20395;-69
2022/03/23 04:18:58;;;;;;;1.63;0.73;;;;;;;;;;4954788;28;20451;-70
2022/03/23 04:21:31;;;;;;;5.25;0.70;;;;;;;;;;4950832;29;20503;-69
2022/03/23 04:24:02;;;;;;;7.95;1.27;;;;;;;;;;4951178;29;20532;-69
2022/03/23 04:26:32;;;;;;;2.75;0.90;;;;;;;;;;4951075;29;20063;-67
2022/03/23 04:29:03;;;;;;;4.25;1.40;;;;;;;;;;4951216;29;20055;-70
2022/03/23 04:31:36;;;;;;;5.63;1.05;;;;;;;;;;4927745;29;20567;-71
2022/03/23 04:34:10;;;;;;;2.58;1.05;;;;;;;;;;4912701;29;20122;-71
2022/03/23 04:36:41;;;;;;;4.93;1.13;;;;;;;;;;4921911;28;20059;-71
2022/03/23 04:39:13;;;;;;;5.30;1.02;;;;;;;;;;4982752;28;20069;-71
2022/03/23 04:41:43;;;;;;;3.78;0.80;;;;;;;;;;4989400;28;20065;-71
2022/03/23 04:44:18;;;;;;;7.70;1.27;;;;;;;;;;4957998;28;20050;-71
2022/03/23 04:46:48;;;;;;;5.35;1.30;;;;;;;;;;4989597;28;20065;-72
2022/03/23 04:49:21;;;;;;;2.92;1.05;;;;;;;;;;5002303;28;20058;-72
2022/03/23 04:52:06;;;;;;;3.38;1.00;;;;;;;;;;4950783;29;20197;-72
2022/03/23 04:54:37;;;;;;;5.03;1.30;;;;;;;;;;4934637;29;20059;-71
2022/03/23 04:57:08;;;;;;;9.20;1.30;;;;;;;;;;4911868;29;20056;-70
2022/03/23 04:59:38;;;;;;;3.80;1.02;;;;;;;;;;4926108;29;20066;-71
2022/03/23 05:02:09;;;;;;;6.07;1.40;;;;;;;;;;4931486;29;20056;-71
2022/03/23 05:04:43;;;;;;;3.95;1.17;;;;;;;;;;4931819;29;20062;-69
2022/03/23 05:07:20;;;;;;;2.55;1.35;;;;;;;;;;4931123;29;20461;-70
2022/03/23 05:09:53;;;;;;;4.53;1.15;;;;;;;;;;4960774;28;20061;-71
2022/03/23 05:12:23;;;;;;;6.07;1.40;;;;;;;;;;4969332;28;20057;-73
2022/03/23 05:14:54;;;;;;;3.67;1.33;;;;;;;;;;4950351;28;20051;-71
2022/03/23 05:17:26;;;;;;;;;;;;;;;;;;4935015;28;20059;-71
2022/03/23 05:20:01;;;;;;;4.90;1.10;;;;;;;;;;4950169;28;19949;-71
2022/03/23 05:22:33;;;;;;;3.38;1.02;;;;;;;;;;4950386;28;20051;-71
2022/03/23 05:25:06;;;;;;;3.70;1.27;;;;;;;;;;4950442;28;20059;-69
2022/03/23 05:27:41;;;;;;;3.83;1.23;;;;;;;;;;4933442;28;20047;-67
2022/03/23 05:30:13;;;;;;;4.43;1.02;;;;;;;;;;4984645;28;20095;-68
2022/03/23 05:32:43;;;;;;;2.05;1.20;;;;;;;;;;4989000;28;20054;-69
2022/03/23 05:35:13;;;;;;;3.75;1.13;;;;;;;;;;4975682;28;20406;-68
2022/03/23 05:37:45;;;;;;;4.70;1.10;;;;;;;;;;4969441;28;20494;-69
2022/03/23 05:40:39;;;;;;;8.88;1.20;;;;;;;;;;4969338;28;20069;-68
2022/03/23 05:43:10;;;;;;;2.88;1.20;;;;;;;;;;4985298;28;20442;-67
2022/03/23 05:45:46;;;;;;;5.28;1.27;;;;;;;;;;4981072;28;20055;-67
2022/03/23 05:48:18;;;;;;;4.28;1.23;;;;;;;;;;4969242;28;20058;-70
2022/03/23 05:50:50;;;;;;;5.93;1.25;;;;;;;;;;4969712;28;20054;-68
2022/03/23 05:53:21;;;;;;;6.20;1.75;;;;;;;;;;4988895;28;20530;-70
2022/03/23 05:55:55;;;;;;;4.15;1.27;;;;;;;;;;4988621;28;20502;-69
2022/03/23 05:58:27;;;;;;;3.65;1.30;;;;;;;;;;4969050;28;20066;-65
2022/03/23 06:00:58;;;;;;;4.53;1.17;;;;;;;;;;4953038;28;20051;-67
2022/03/23 06:03:30;;;;;;;3.13;1.10;;;;;;;;;;4969387;28;20063;-66
2022/03/23 06:06:03;;;;;;;5.47;1.30;;;;;;;;;;4953350;28;20550;-66
2022/03/23 06:08:34;;;;;;;4.50;1.33;;;;;;;;;;4981067;28;20058;-66
2022/03/23 06:11:07;;;;;;;4.65;1.40;;;;;;;;;;4988596;28;20070;-66
2022/03/23 06:13:37;;;;;;;8.18;1.25;;;;;;;;;;4943470;28;20046;-65
2022/03/23 06:16:11;;;;;;;6.88;1.50;;;;;;;;;;4991737;28;20557;-65
2022/03/23 06:18:46;;;;;;;8.80;1.17;;;;;;;;;;4953220;28;20074;-66
2022/03/23 06:21:19;;;;;;;3.63;1.63;;;;;;;;;;4953170;29;20055;-66
2022/03/23 06:23:49;;;;;;;4.15;1.33;;;;;;;;;;4953509;29;20055;-67
2022/03/23 06:26:28;;;;;;;4.70;1.27;;;;;;;;;;4905705;29;20096;-66
2022/03/23 06:29:00;;;;;;;5.03;1.27;;;;;;;;;;4953061;29;20051;-66
2022/03/23 06:31:30;;;;;;;;;;;;;;;;;;4969053;28;20055;-66
2022/03/23 06:34:03;;;;;;;9.23;1.42;;;;;;;;;;4953098;29;20386;-66
2022/03/23 06:36:37;;;;;;;4.32;1.45;;;;;;;;;;4942888;29;20043;-66
2022/03/23 06:39:08;;;;;;;4.30;1.38;;;;;;;;;;4952980;29;20397;-66
2022/03/23 06:41:40;;;;;;;9.20;1.42;;;;;;;;;;4952965;29;20066;-66
2022/03/23 06:44:10;;;;;;;4.38;1.20;;;;;;;;;;4926287;28;20050;-66
2022/03/23 06:46:43;;;;;;;3.08;0.93;;;;;;;;;;4912189;28;20050;-66
2022/03/23 06:49:16;;;;;;;5.05;1.40;;;;;;;;;;4991373;28;20589;-66
2022/03/23 06:51:47;;;;;;;4.85;1.60;;;;;;;;;;4991337;28;20062;-66
2022/03/23 06:54:18;;;;;;;4.50;1.40;;;;;;;;;;4972077;28;20055;-66
2022/03/23 06:56:51;;;;;;;7.32;1.63;;;;;;;;;;4982819;28;20053;-66
2022/03/23 06:59:23;;;;;;;5.25;1.60;;;;;;;;;;5011029;28;20073;-66
2022/03/23 07:01:55;;;;;;;3.28;1.52;;;;;;;;;;5010896;28;20068;-67
2022/03/23 07:04:25;;;;;;;5.40;1.20;;;;;;;;;;5010980;28;20045;-66
2022/03/23 07:06:58;;;;;;;4.13;1.13;;;;;;;;;;5011019;28;20057;-66
2022/03/23 07:09:31;;;;;;;3.80;1.20;;;;;;;;;;4952820;29;20059;-66
2022/03/23 07:12:05;;;;;;;4.07;1.17;;;;;;;;;;4952457;29;20059;-66
2022/03/23 07:14:38;;;;;;;3.15;1.17;;;;;;;;;;4952505;29;20132;-66
2022/03/23 07:17:12;;;;;;;4.35;0.88;;;;;;;;;;4952377;29;20066;-66
2022/03/23 07:19:44;;;;;;;2.88;1.00;;;;;;;;;;4952641;29;20063;-66
2022/03/23 07:22:18;;;;;;;2.03;0.90;;;;;;;;;;4986173;28;20062;-67
2022/03/23 07:24:48;;;;;;;2.25;0.82;;;;;;;;;;4950823;28;21040;-68
2022/03/23 07:27:24;;;;;;;2.95;0.85;;;;;;;;;;4952229;29;20055;-69
2022/03/23 07:29:55;;;;;;;4.32;1.02;;;;;;;;;;4952271;29;20128;-68
2022/03/23 07:32:26;;;;;;;2.88;0.90;;;;;;;;;;4979325;28;20073;-68
2022/03/23 07:34:55;;;;;;;3.03;0.73;;;;;;;;;;4990698;28;20066;-67
2022/03/23 07:37:26;;;;;;;2.08;0.70;;;;;;;;;;4990467;28;20069;-67
2022/03/23 07:39:59;;;;;;;3.40;0.85;;;;;;;;;;4994776;28;20517;-67
2022/03/23 07:42:32;;;;;;;3.50;1.00;;;;;;;;;;4977959;28;20056;-67
2022/03/23 07:45:03;;;;;;;1.58;0.80;;;;;;;;;;4974512;28;20054;-67
2022/03/23 07:47:35;;;;;;;1.67;0.82;;;;;;;;;;4990587;28;20434;-66
2022/03/23 07:50:10;;;;;;;1.48;0.80;;;;;;;;;;4990662;28;20050;-66
2022/03/23 07:52:41;;;;;;;4.05;0.82;;;;;;;;;;5011511;28;20497;-66
2022/03/23 07:55:11;;;;;;;1.67;0.70;;;;;;;;;;5049540;28;20049;-66
2022/03/23 07:57:45;;;;;;;4.00;0.60;;;;;;;;;;5017507;28;20057;-66
2022/03/23 08:00:17;;;;;;;2.97;0.80;;;;;;;;;;4976591;28;20058;-70
2022/03/23 08:02:50;;;;;;;;;;;;;;;;;;4946542;28;20541;-70
2022/03/23 08:05:20;;;;;;;2.47;0.82;;;;;;;;;;5009765;28;19922;-72
2022/03/23 08:07:55;;;;;;;2.63;0.80;;;;;;;;;;4990033;28;20050;-71
2022/03/23 08:10:28;;;;;;;2.20;1.13;;;;;;;;;;5009607;28;20068;-69
2022/03/23 08:13:01;;;;;;;2.00;0.80;;;;;;;;;;4977712;28;20058;-72
2022/03/23 08:15:34;;;;;;;3.15;0.95;;;;;;;;;;4993694;28;20058;-71
2022/03/23 08:18:09;;;;;;;1.83;0.90;;;;;;;;;;5009519;28;20125;-71
2022/03/23 08:21:05;;;;;;;5.53;1.40;;;;;;;;;;4961391;28;20502;-71
2022/03/23 08:23:35;;;;;;;1.83;0.60;;;;;;;;;;4960837;28;20499;-69
2022/03/23 08:26:09;;;;;;;3.13;0.82;;;;;;;;;;4989710;28;20050;-70
2022/03/23 08:28:47;;;;;;;2.30;0.90;;;;;;;;;;4973099;28;20042;-70
2022/03/23 08:31:19;;;;;;;2.47;0.85;;;;;;;;;;4989282;28;20053;-69
2022/03/23 08:33:50;;;;;;;3.50;1.05;;;;;;;;;;4989764;28;20054;-69
2022/03/23 08:36:21;;;;;;;4.55;0.95;;;;;;;;;;4989323;28;20058;-69
2022/03/23 08:38:55;;;;;;;2.33;0.90;;;;;;;;;;4957456;28;20054;-69
2022/03/23 08:41:29;;;;;;;2.88;1.30;;;;;;;;;;4990041;28;20463;-69
2022/03/23 08:44:00;;;;;;;2.45;0.80;;;;;;;;;;4989455;28;20058;-69
2022/03/23 08:46:30;;;;;;;3.05;1.35;;;;;;;;;;4958924;28;20435;-69
2022/03/23 08:49:01;;;;;;;3.35;1.15;;;;;;;;;;5044829;28;20128;-69
2022/03/23 08:51:33;;;;;;;3.72;0.85;;;;;;;;;;5048745;28;20525;-68
2022/03/23 08:54:05;;;;;;;3.05;1.10;;;;;;;;;;4983513;28;20052;-69
2022/03/23 08:56:37;;;;;;;3.05;1.08;;;;;;;;;;5048524;28;20104;-68
2022/03/23 08:59:06;;;;;;;1.80;0.93;;;;;;;;;;5032116;28;20417;-68
2022/03/23 09:01:38;;;;;;;4.00;1.20;;;;;;;;;;5048539;28;20441;-68
2022/03/23 09:04:11;;;;;;;4.35;1.15;;;;;;;;;;5031711;28;20409;-69
2022/03/23 09:06:42;;;;;;;4.22;1.27;;;;;;;;;;4999115;28;20045;-68
2022/03/23 09:09:12;;;;;;;3.00;1.10;;;;;;;;;;5016253;28;20437;-69
2022/03/23 09:11:47;;;;;;;2.70;1.48;;;;;;;;;;5048438;28;20413;-69
2022/03/23 09:14:19;;;;;;;4.85;1.65;;;;;;;;;;5047940;28;20044;-69
2022/03/23 09:16:50;;;;;;;2.33;1.13;;;;;;;;;;5048246;28;20056;-69
2022/03/23 09:19:21;;;;;;;3.10;0.95;;;;;;;;;;5015492;28;20100;-68
2022/03/23 09:21:51;;;;;;;3.85;1.00;;;;;;;;;;5015260;28;20064;-70
2022/03/23 09:24:27;;;;;;;3.25;0.95;;;;;;;;;;5014997;28;20056;-69
2022/03/23 09:26:59;;;;;;;3.45;1.20;;;;;;;;;;5048030;28;20063;-68
2022/03/23 09:29:29;;;;;;;2.33;1.00;;;;;;;;;;5014767;28;21049;-68
2022/03/23 09:32:01;;;;;;;2.03;1.10;;;;;;;;;;5008473;28;20054;-68
2022/03/23 09:34:32;;;;;;;3.58;1.27;;;;;;;;;;4976169;28;20061;-69
2022/03/23 09:39:53;;;;;;;4.95;1.30;;;;;;;;;;4969418;28;20051;-69
2022/03/23 09:42:27;;;;;;;3.78;1.10;;;;;;;;;;4930878;29;20063;-69
2022/03/23 09:45:00;;;;;;;3.17;1.25;;;;;;;;;;4931135;29;20060;-68
2022/03/23 09:47:32;;;;;;;2.58;1.30;;;;;;;;;;4947648;28;20153;-69
2022/03/23 09:50:03;;;;;;;4.65;1.20;;;;;;;;;;4953821;29;20055;-69
2022/03/23 09:52:35;;;;;;;3.03;1.33;;;;;;;;;;4952325;28;20051;-69
2022/03/23 09:55:06;;;;;;;5.47;1.48;;;;;;;;;;4973150;28;20630;-68
2022/03/23 09:57:37;;;;;;;3.85;1.10;;;;;;;;;;4972986;28;20054;-71
2022/03/23 10:00:10;;;;;;;6.82;1.15;;;;;;;;;;4972979;28;20050;-70
2022/03/23 10:03:16;;;;;;;3.25;1.45;;;;;;;;;;4956926;28;20425;-71
2022/03/23 10:06:20;;;;;;;4.97;1.48;;;;;;;;;;4973034;28;20527;-68
2022/03/23 10:09:07;;;;;;;11.10;1.73;;;;;;;;;;4922087;29;20070;-68
2022/03/23 10:12:19;;;;;;;5.45;1.58;;;;;;;;;;4921871;29;20047;-68
2022/03/23 10:15:27;;;;;;;8.43;1.60;;;;;;;;;;4934107;29;20052;-66
2022/03/23 10:18:26;;;;;;;4.70;1.52;;;;;;;;;;4937783;29;20507;-68
2022/03/23 10:20:58;;;;;;;3.40;1.27;;;;;;;;;;4934250;29;20523;-69
2022/03/23 10:23:29;;;;;;;6.65;1.60;;;;;;;;;;4934055;29;20071;-68
2022/03/23 10:26:14;;;;;;;5.68;1.35;;;;;;;;;;4934070;29;20051;-68
2022/03/23 10:28:45;;;;;;;6.07;1.30;;;;;;;;;;4902889;29;20063;-70
2022/03/23 10:31:21;;;;;;;5.45;1.27;;;;;;;;;;4953352;29;20050;-68
2022/03/23 10:34:07;;;;;;;7.28;1.55;;;;;;;;;;4953198;29;20059;-68
2022/03/23 10:36:41;;;;;;;6.88;1.90;;;;;;;;;;4952019;28;20499;-68
2022/03/23 10:39:14;;;;;;;6.82;1.50;;;;;;;;;;4953014;29;20086;-68
2022/03/23 10:42:16;;;;;;;27.42;2.83;;;;;;;;;;4953197;29;20416;-69
2022/03/23 10:44:48;;;;;;;19.80;2.90;;;;;;;;;;4924537;28;20570;-67
2022/03/23 10:47:31;;;;;;;33.90;2.92;;;;;;;;;;4991696;28;20415;-68
2022/03/23 10:50:26;;;;;;;9.10;2.10;;;;;;;;;;4991708;28;20403;-66
2022/03/23 10:53:01;;;;;;;3.33;1.40;;;;;;;;;;4992473;28;20049;-67
2022/03/23 10:55:47;;;;;;;4.60;1.52;;;;;;;;;;5021006;28;20054;-67
2022/03/23 10:58:26;;;;;;;15.35;1.65;;;;;;;;;;4963101;28;20062;-68
2022/03/23 11:00:58;;;;;;;11.98;1.50;;;;;;;;;;5010910;28;20450;-68
2022/03/23 11:03:43;;;;;;;6.13;1.50;;;;;;;;;;4963652;28;20429;-67
2022/03/23 11:06:17;;;;;;;46.75;2.45;;;;;;;;;;5010861;28;20045;-67
2022/03/23 11:08:48;;;;;;;4.82;1.30;;;;;;;;;;5010784;28;20447;-67
2022/03/23 11:16:54;;;;;;;4.95;1.40;;;;;;;;;;5010506;28;20089;-67
2022/03/23 11:19:31;;;;;;;4.85;1.65;;;;;;;;;;5009217;28;20057;-67
2022/03/23 11:22:16;;;;;;;6.50;2.05;;;;;;;;;;4958966;28;20058;-67
2022/03/23 11:24:47;;;;;;;3.92;1.30;;;;;;;;;;4905773;28;20062;-67
2022/03/23 11:27:21;;;;;;;3.22;1.20;;;;;;;;;;4952319;28;20051;-68
2022/03/23 11:29:59;;;;;;;6.10;1.30;;;;;;;;;;4977795;28;20054;-68
2022/03/23 11:32:39;;;;;;;4.07;1.35;;;;;;;;;;5010478;28;20061;-67
2022/03/23 11:35:11;;;;;;;3.85;1.70;;;;;;;;;;4962587;28;20053;-69
2022/03/23 11:37:44;;;;;;;5.22;1.50;;;;;;;;;;4961694;28;20062;-68
2022/03/23 11:40:19;;;;;;;8.95;1.83;;;;;;;;;;5010272;28;20069;-68
2022/03/23 11:42:49;;;;;;;5.03;1.40;;;;;;;;;;5010318;28;20397;-68
2022/03/23 11:45:19;;;;;;;3.78;1.60;;;;;;;;;;4961561;28;20065;-68
2022/03/23 11:48:01;;;;;;;4.43;1.60;;;;;;;;;;4978083;28;20062;-68
2022/03/23 11:50:56;;;;;;;5.47;1.48;;;;;;;;;;5009898;28;20399;-68
2022/03/23 11:53:52;;;;;;;3.20;1.17;;;;;;;;;;4995784;28;20053;-68
2022/03/23 11:56:52;;;;;;;4.38;1.40;;;;;;;;;;4970992;28;20062;-68
2022/03/23 11:59:25;;;;;;;3.92;1.52;;;;;;;;;;4978103;28;20054;-68
2022/03/23 12:02:01;;;;;;;4.35;1.20;;;;;;;;;;4990484;28;20070;-68
2022/03/23 12:04:32;;;;;;;4.82;1.48;;;;;;;;;;4964949;28;20061;-69
2022/03/23 12:07:07;;;;;;;4.45;1.08;;;;;;;;;;4977193;28;20057;-68
2022/03/23 12:09:44;;;;;;;7.20;1.42;;;;;;;;;;4976862;28;20058;-68
2022/03/23 12:12:32;;;;;;;7.45;1.60;;;;;;;;;;5009538;28;20049;-68
2022/03/23 12:15:26;;;;;;;3.30;1.27;;;;;;;;;;5009756;28;20106;-68
2022/03/23 12:18:02;;;;;;;4.50;1.40;;;;;;;;;;4963688;28;20062;-69
2022/03/23 12:20:46;;;;;;;6.15;1.45;;;;;;;;;;5009733;28;20084;-70
2022/03/23 12:23:27;;;;;;;3.80;1.20;;;;;;;;;;5009544;28;20042;-68
2022/03/23 12:26:04;;;;;;;5.30;1.40;;;;;;;;;;5009496;28;20054;-68
2022/03/23 12:29:00;;;;;;;4.13;1.50;;;;;;;;;;4970257;28;20051;-68
2022/03/23 12:31:39;;;;;;;5.95;1.77;;;;;;;;;;4970331;28;20059;-68
2022/03/23 12:34:28;;;;;;;6.38;1.35;;;;;;;;;;4987295;28;20442;-67
2022/03/23 12:37:20;;;;;;;6.00;1.45;;;;;;;;;;4999685;28;20053;-68
2022/03/23 12:39:51;;;;;;;4.03;1.70;;;;;;;;;;5032433;28;20409;-67
2022/03/23 12:42:34;;;;;;;7.00;1.58;;;;;;;;;;5048890;28;20053;-68
2022/03/23 12:45:25;;;;;;;7.15;2.17;;;;;;;;;;5048857;28;20057;-68
2022/03/23 12:57:49;;;;;;;4.90;1.40;;;;;;;;;;5000328;28;20052;-67
2022/03/23 12:59:49;;;;;;;5.97;1.85;;;;;;;;;;4950468;28;20095;-68
2022/03/23 13:02:23;;;;;;;5.45;1.60;;;;;;;;;;4935061;29;20059;-67
2022/03/23 13:04:57;;;;;;;6.15;1.90;;;;;;;;;;4935247;28;20055;-68
2022/03/23 13:07:31;;;;;;;7.22;1.60;;;;;;;;;;4938994;28;20046;-67
2022/03/23 13:10:14;;;;;;;4.97;1.75;;;;;;;;;;4972734;28;20617;-67
2022/03/23 13:12:45;;;;;;;5.07;1.83;;;;;;;;;;4972317;28;20411;-70
2022/03/23 13:15:19;;;;;;;3.95;1.13;;;;;;;;;;4969903;28;20046;-68
2022/03/23 13:17:52;;;;;;;4.70;1.10;;;;;;;;;;4969704;28;20474;-68
2022/03/23 13:20:27;;;;;;;5.00;1.20;;;;;;;;;;4969656;28;20074;-68
2022/03/23 13:23:13;;;;;;;4.28;1.27;;;;;;;;;;4968999;28;20073;-68
2022/03/23 13:26:05;;;;;;;3.78;1.70;;;;;;;;;;4969747;28;20474;-67
2022/03/23 13:28:41;;;;;;;5.07;1.45;;;;;;;;;;4989063;28;20593;-68
2022/03/23 13:31:12;;;;;;;5.28;2.20;;;;;;;;;;4988992;28;20046;-67
2022/03/23 13:33:50;;;;;;;5.95;2.17;;;;;;;;;;4968971;28;20050;-67
2022/03/23 13:36:24;;;;;;;8.30;2.15;;;;;;;;;;4960600;28;20061;-68
2022/03/23 13:38:59;;;;;;;6.90;2.00;;;;;;;;;;5048199;28;20541;-68
2022/03/23 13:44:54;;;;;;;8.90;2.40;;;;;;;;;;5048218;28;20055;-68
2022/03/23 13:47:12;;;;;;;5.95;2.50;;;;;;;;;;5008133;28;20057;-67
2022/03/23 13:49:45;;;;;;;9.88;2.38;;;;;;;;;;5008638;28;20106;-67
2022/03/23 13:52:17;;;;;;;5.53;2.25;;;;;;;;;;5008153;28;20046;-70
2022/03/23 13:54:48;;;;;;;8.07;2.53;;;;;;;;;;4959962;28;20058;-68
2022/03/23 13:57:19;;;;;;;10.52;2.20;;;;;;;;;;5008049;28;20058;-69
2022/03/23 13:59:51;;;;;;;6.68;2.25;;;;;;;;;;4988425;28;20046;-68
2022/03/23 14:02:30;;;;;;;6.32;2.75;;;;;;;;;;4988317;28;20062;-69
2022/03/23 14:05:35;;;;;;;6.55;2.40;;;;;;;;;;4994688;28;20058;-67
2022/03/23 14:08:05;;;;;;;7.57;2.60;;;;;;;;;;5018852;28;20053;-67
2022/03/23 14:10:39;;;;;;;6.65;2.92;;;;;;;;;;5011868;28;20045;-67
2022/03/23 14:13:14;;;;;;;4.57;2.05;;;;;;;;;;5028271;28;20053;-66
2022/03/23 14:15:58;;;;;;;2.95;1.77;;;;;;;;;;5028106;28;20426;-66
2022/03/23 14:18:33;;;;;;;6.22;1.95;;;;;;;;;;4995575;28;20761;-66
2022/03/23 14:21:04;;;;;;;4.97;2.50;;;;;;;;;;4988446;28;20054;-66
2022/03/23 14:23:34;;;;;;;6.43;1.40;;;;;;;;;;5007837;28;20054;-66
2022/03/23 14:26:32;;;;;;;7.10;1.67;;;;;;;;;;5019213;28;20049;-66
2022/03/23 14:29:22;;;;;;;3.17;1.63;;;;;;;;;;4968879;28;20058;-66
2022/03/23 14:31:54;;;;;;;6.13;1.70;;;;;;;;;;4949204;29;20055;-68
2022/03/23 14:34:29;;;;;;;4.20;1.60;;;;;;;;;;4952349;28;20128;-67
2022/03/23 14:37:09;;;;;;;7.88;1.90;;;;;;;;;;4934642;28;20522;-68
2022/03/23 14:39:45;;;;;;;6.80;1.70;;;;;;;;;;4976911;28;20086;-67
2022/03/23 14:42:37;;;;;;;5.25;1.73;;;;;;;;;;4972186;28;20062;-68
2022/03/23 14:45:44;;;;;;;4.50;1.73;;;;;;;;;;4971791;28;20158;-68
2022/03/23 14:48:35;;;;;;;4.75;1.27;;;;;;;;;;4971677;28;20051;-68
2022/03/23 14:51:32;;;;;;;7.30;1.67;;;;;;;;;;4971659;28;20595;-67
2022/03/23 14:54:06;;;;;;;4.30;1.75;;;;;;;;;;4972068;28;20055;-66
2022/03/23 14:56:39;;;;;;;5.65;1.88;;;;;;;;;;4883237;29;20056;-67
2022/03/23 14:59:13;;;;;;;5.55;1.92;;;;;;;;;;4860849;29;20613;-67
2022/03/23 15:01:50;;;;;;;3.53;1.65;;;;;;;;;;4876788;29;20053;-67
2022/03/23 15:04:27;;;;;;;3.95;1.58;;;;;;;;;;4860911;29;20060;-67
2022/03/23 15:13:18;;;;;;;8.20;2.97;;;;;;;;;;4952568;29;20059;-68
2022/03/23 15:15:49;;;;;;;6.20;2.60;;;;;;;;;;4952388;29;21303;-69
2022/03/23 15:18:19;;;;;;;6.15;1.98;;;;;;;;;;4969539;28;20055;-68
2022/03/23 15:20:54;;;;;;;4.00;1.70;;;;;;;;;;4932860;29;20047;-69
2022/03/23 15:23:25;;;;;;;6.78;1.80;;;;;;;;;;4901249;29;20060;-70
2022/03/23 15:25:57;;;;;;;4.70;1.80;;;;;;;;;;4895083;29;20065;-71
2022/03/23 15:28:27;;;;;;;2.55;1.20;;;;;;;;;;4848285;29;20068;-72
2022/03/23 15:31:00;;;;;;;4.88;1.40;;;;;;;;;;4876010;29;20045;-71
2022/03/23 15:33:36;;;;;;;1.75;0.82;;;;;;;;;;4858062;29;20088;-72
2022/03/23 15:36:07;;;;;;;3.70;1.40;;;;;;;;;;4864778;29;20075;-71
2022/03/23 15:38:37;;;;;;;4.35;1.27;;;;;;;;;;4863703;29;20558;-72
2022/03/23 15:41:12;;;;;;;2.85;1.30;;;;;;;;;;4860720;29;20053;-68
2022/03/23 15:43:56;;;;;;;5.10;1.40;;;;;;;;;;4875921;29;20049;-69
2022/03/23 15:46:27;;;;;;;5.32;1.67;;;;;;;;;;4865219;29;20088;-68
2022/03/23 15:48:59;;;;;;;3.20;1.13;;;;;;;;;;4894887;29;20061;-68
2022/03/23 15:51:36;;;;;;;2.95;1.23;;;;;;;;;;4894874;29;20067;-70
2022/03/23 15:54:08;;;;;;;2.72;1.10;;;;;;;;;;4857331;29;20068;-72
2022/03/23 15:56:38;;;;;;;;;;;;;;;;;;4857885;29;20061;-74
2022/03/23 15:59:08;;;;;;;3.85;1.20;;;;;;;;;;4885483;29;19923;-75
2022/03/23 16:01:41;;;;;;;2.38;1.00;;;;;;;;;;4875699;29;20064;-74
2022/03/23 16:04:14;;;;;;;2.08;1.13;;;;;;;;;;4919515;29;20055;-73
2022/03/23 16:06:46;;;;;;;5.20;1.50;;;;;;;;;;4932391;29;20060;-72
2022/03/23 16:09:17;;;;;;;3.55;1.52;;;;;;;;;;4946882;29;20681;-70